Time;durP1;ratioP1;P1;durP2;ratioP2;P2;SDS_P1;SDS_P2;PMS_P1;PMS_P2;Temp;Humidity;BMP_temperature;BMP_pressure;BME280_temperature;BME280_humidity;BME280_pressure;Samples;Min_cycle;Max_cycle;Signal;HPM_P1;HPM_P2
2023/08/07 00:00:09;;;;;;;0.10;0.10;;;;;;;;;;10456101;28;20282;-66
2023/08/07 00:05:09;;;;;;;0.10;0.10;;;;;;;;;;10455645;28;20017;-66
2023/08/07 00:10:10;;;;;;;0.10;0.10;;;;;;;;;;10447903;28;20032;-66
2023/08/07 00:15:11;;;;;;;0.10;0.10;;;;;;;;;;10447855;28;20024;-65
2023/08/07 00:20:11;;;;;;;0.10;0.10;;;;;;;;;;10449862;28;20028;-66
2023/08/07 00:25:11;;;;;;;0.10;0.10;;;;;;;;;;10455587;28;20357;-66
2023/08/07 00:30:12;;;;;;;0.10;0.10;;;;;;;;;;10471468;28;20101;-66
2023/08/07 00:35:12;;;;;;;0.10;0.10;;;;;;;;;;10460415;28;20021;-66
2023/08/07 00:40:12;;;;;;;0.10;0.10;;;;;;;;;;10474189;28;20040;-66
2023/08/07 00:45:12;;;;;;;0.10;0.10;;;;;;;;;;10480327;28;20045;-66
2023/08/07 00:50:13;;;;;;;0.10;0.10;;;;;;;;;;10469663;28;20510;-66
2023/08/07 00:55:13;;;;;;;0.10;0.10;;;;;;;;;;10463417;28;20025;-66
2023/08/07 01:00:14;;;;;;;0.10;0.10;;;;;;;;;;10454232;28;20032;-66
2023/08/07 01:05:14;;;;;;;0.10;0.10;;;;;;;;;;10468021;28;20567;-67
2023/08/07 01:10:15;;;;;;;0.10;0.10;;;;;;;;;;10456666;28;20067;-67
2023/08/07 01:15:33;;;;;;;0.00;0.00;;;;;;;;;;10460028;28;20033;-67
2023/08/07 01:20:34;;;;;;;0.10;0.10;;;;;;;;;;10452627;28;20396;-67
2023/08/07 01:25:36;;;;;;;0.10;0.10;;;;;;;;;;10453126;28;20017;-66
2023/08/07 01:30:38;;;;;;;0.00;0.00;;;;;;;;;;10454181;28;20036;-66
2023/08/07 01:35:43;;;;;;;0.10;0.10;;;;;;;;;;10466909;28;20020;-67
2023/08/07 01:40:44;;;;;;;0.10;0.10;;;;;;;;;;10452520;28;21428;-66
2023/08/07 01:45:44;;;;;;;0.10;0.10;;;;;;;;;;10458332;28;20028;-67
2023/08/07 01:50:44;;;;;;;0.10;0.10;;;;;;;;;;10467876;28;20025;-67
2023/08/07 01:55:45;;;;;;;0.10;0.10;;;;;;;;;;10453177;28;20485;-66
2023/08/07 02:00:45;;;;;;;0.10;0.10;;;;;;;;;;10451250;28;20020;-67
2023/08/07 02:05:45;;;;;;;0.10;0.10;;;;;;;;;;10457396;28;20017;-66
2023/08/07 02:10:46;;;;;;;0.10;0.10;;;;;;;;;;10470117;28;20086;-67
2023/08/07 02:15:46;;;;;;;0.10;0.10;;;;;;;;;;10460761;28;20013;-66
2023/08/07 02:20:46;;;;;;;0.10;0.10;;;;;;;;;;10458173;28;20013;-66
2023/08/07 02:25:47;;;;;;;0.00;0.00;;;;;;;;;;10450316;28;20559;-67
2023/08/07 02:30:53;;;;;;;0.10;0.10;;;;;;;;;;10466607;28;20039;-66
2023/08/07 02:35:53;;;;;;;0.10;0.10;;;;;;;;;;10472436;28;20421;-65
2023/08/07 02:40:53;;;;;;;0.00;0.00;;;;;;;;;;10467187;28;20009;-66
2023/08/07 02:45:54;;;;;;;0.10;0.10;;;;;;;;;;10456872;28;20384;-66
2023/08/07 02:50:54;;;;;;;0.10;0.10;;;;;;;;;;10449266;28;20028;-66
2023/08/07 02:55:54;;;;;;;0.10;0.10;;;;;;;;;;10460203;28;20021;-67
2023/08/07 03:00:55;;;;;;;0.10;0.10;;;;;;;;;;10447328;28;20202;-66
2023/08/07 03:05:55;;;;;;;0.00;0.00;;;;;;;;;;10464521;28;20490;-67
2023/08/07 03:10:56;;;;;;;0.10;0.10;;;;;;;;;;10464832;28;20035;-67
2023/08/07 03:16:00;;;;;;;0.10;0.10;;;;;;;;;;10465389;28;20107;-67
2023/08/07 03:21:00;;;;;;;0.10;0.10;;;;;;;;;;10447943;28;20045;-65
2023/08/07 03:26:11;;;;;;;0.10;0.10;;;;;;;;;;10448361;28;20052;-66
2023/08/07 03:31:11;;;;;;;0.10;0.10;;;;;;;;;;10456225;28;20025;-66
2023/08/07 03:36:11;;;;;;;0.08;0.08;;;;;;;;;;10454199;28;20016;-66
2023/08/07 03:41:11;;;;;;;0.10;0.10;;;;;;;;;;10453423;28;20031;-65
2023/08/07 03:46:11;;;;;;;0.08;0.08;;;;;;;;;;10464320;28;20017;-66
2023/08/07 03:51:11;;;;;;;0.10;0.10;;;;;;;;;;10454479;28;20108;-66
2023/08/07 03:56:12;;;;;;;0.10;0.10;;;;;;;;;;10469785;28;20021;-66
2023/08/07 04:01:12;;;;;;;0.10;0.10;;;;;;;;;;10455253;28;20357;-66
2023/08/07 04:06:15;;;;;;;0.05;0.05;;;;;;;;;;10445986;28;20021;-67
2023/08/07 04:11:15;;;;;;;0.10;0.10;;;;;;;;;;10453506;28;20047;-66
2023/08/07 04:16:16;;;;;;;0.10;0.10;;;;;;;;;;10488442;28;20048;-66
2023/08/07 04:21:16;;;;;;;0.10;0.10;;;;;;;;;;10468303;28;20487;-65
2023/08/07 04:26:17;;;;;;;0.10;0.10;;;;;;;;;;10479485;28;20021;-65
2023/08/07 04:31:17;;;;;;;0.10;0.10;;;;;;;;;;10456582;28;20103;-66
2023/08/07 04:36:17;;;;;;;0.10;0.10;;;;;;;;;;10478339;28;20033;-66
2023/08/07 04:41:17;;;;;;;0.10;0.10;;;;;;;;;;10470789;28;20032;-67
2023/08/07 04:46:17;;;;;;;0.10;0.10;;;;;;;;;;10471115;28;20103;-66
2023/08/07 04:51:17;;;;;;;0.10;0.10;;;;;;;;;;10462080;28;20019;-67
2023/08/07 04:56:18;;;;;;;0.10;0.10;;;;;;;;;;10479048;28;20031;-67
2023/08/07 05:01:18;;;;;;;0.00;0.00;;;;;;;;;;10477888;28;20349;-66
2023/08/07 05:06:19;;;;;;;0.10;0.10;;;;;;;;;;10472359;28;20248;-67
2023/08/07 05:11:20;;;;;;;0.10;0.10;;;;;;;;;;10478221;28;20012;-67
2023/08/07 05:16:20;;;;;;;0.10;0.10;;;;;;;;;;10486614;28;20021;-66
2023/08/07 05:21:20;;;;;;;0.10;0.10;;;;;;;;;;10493634;28;20403;-66
2023/08/07 05:26:21;;;;;;;0.10;0.10;;;;;;;;;;10476765;28;20494;-67
2023/08/07 05:31:21;;;;;;;0.10;0.10;;;;;;;;;;10481852;28;20023;-65
2023/08/07 05:36:21;;;;;;;0.00;0.00;;;;;;;;;;10468129;28;20100;-66
2023/08/07 05:41:21;;;;;;;0.10;0.10;;;;;;;;;;10468204;28;20023;-65
2023/08/07 05:46:21;;;;;;;0.10;0.10;;;;;;;;;;10484845;28;20039;-66
2023/08/07 05:51:22;;;;;;;0.00;0.00;;;;;;;;;;10460378;28;20436;-66
2023/08/07 05:56:22;;;;;;;0.00;0.00;;;;;;;;;;10492454;28;20028;-67
2023/08/07 06:01:22;;;;;;;0.05;0.05;;;;;;;;;;10473973;28;20017;-65
2023/08/07 06:06:23;;;;;;;0.10;0.10;;;;;;;;;;10467502;28;20100;-65
2023/08/07 06:11:23;;;;;;;0.08;0.08;;;;;;;;;;10475594;28;20017;-65
2023/08/07 06:16:23;;;;;;;0.00;0.00;;;;;;;;;;10467004;28;20028;-66
2023/08/07 06:21:24;;;;;;;0.00;0.00;;;;;;;;;;10475176;28;20058;-66
2023/08/07 06:26:24;;;;;;;0.00;0.00;;;;;;;;;;10458807;28;20104;-65
2023/08/07 06:31:24;;;;;;;0.10;0.10;;;;;;;;;;10474814;28;20020;-66
2023/08/07 06:36:24;;;;;;;0.00;0.00;;;;;;;;;;10460918;28;20506;-66
2023/08/07 06:41:24;;;;;;;0.00;0.00;;;;;;;;;;10473954;28;20017;-65
2023/08/07 06:46:26;;;;;;;0.10;0.10;;;;;;;;;;10490685;28;20017;-66
2023/08/07 06:51:26;;;;;;;0.00;0.00;;;;;;;;;;10473672;28;20042;-66
2023/08/07 06:56:27;;;;;;;0.10;0.10;;;;;;;;;;10482696;28;20025;-66
2023/08/07 07:01:27;;;;;;;0.00;0.00;;;;;;;;;;10473889;28;20027;-66
2023/08/07 07:06:28;;;;;;;0.10;0.10;;;;;;;;;;10481605;28;20045;-67
2023/08/07 07:11:28;;;;;;;0.00;0.00;;;;;;;;;;10487722;28;20107;-65
2023/08/07 07:16:28;;;;;;;0.10;0.10;;;;;;;;;;10473315;28;20146;-64
2023/08/07 07:21:28;;;;;;;0.10;0.10;;;;;;;;;;10475368;28;20472;-65
2023/08/07 07:26:28;;;;;;;0.00;0.00;;;;;;;;;;10465152;28;20047;-66
2023/08/07 07:31:29;;;;;;;0.00;0.00;;;;;;;;;;10497689;28;20025;-66
2023/08/07 07:36:29;;;;;;;0.10;0.10;;;;;;;;;;10497344;28;20024;-67
2023/08/07 07:41:29;;;;;;;0.10;0.10;;;;;;;;;;10461766;28;20017;-67
2023/08/07 07:46:31;;;;;;;0.00;0.00;;;;;;;;;;10478547;28;20092;-66
2023/08/07 07:51:31;;;;;;;0.00;0.00;;;;;;;;;;10486788;28;20020;-66
2023/08/07 07:56:31;;;;;;;0.00;0.00;;;;;;;;;;10486413;28;20035;-67
2023/08/07 08:01:32;;;;;;;0.10;0.10;;;;;;;;;;10502677;28;20078;-68
2023/08/07 08:06:32;;;;;;;0.00;0.00;;;;;;;;;;10494283;28;20025;-66
2023/08/07 08:11:32;;;;;;;0.00;0.00;;;;;;;;;;10478002;28;20111;-67
2023/08/07 08:16:33;;;;;;;0.00;0.00;;;;;;;;;;10486179;28;20023;-66
2023/08/07 08:21:33;;;;;;;0.00;0.00;;;;;;;;;;10477260;28;20104;-67
2023/08/07 08:26:33;;;;;;;0.00;0.00;;;;;;;;;;10502251;28;20017;-66
2023/08/07 08:31:34;;;;;;;0.10;0.10;;;;;;;;;;10493656;28;20023;-66
2023/08/07 08:36:34;;;;;;;0.00;0.00;;;;;;;;;;10472630;28;20017;-67
2023/08/07 08:41:34;;;;;;;0.00;0.00;;;;;;;;;;10490984;28;20066;-67
2023/08/07 08:46:34;;;;;;;0.00;0.00;;;;;;;;;;10486939;28;20031;-67
2023/08/07 08:51:35;;;;;;;0.00;0.00;;;;;;;;;;10486817;28;20094;-68
2023/08/07 08:56:36;;;;;;;0.00;0.00;;;;;;;;;;10480905;22;20100;-62
2023/08/07 09:01:36;;;;;;;0.00;0.00;;;;;;;;;;10333909;28;20031;-62
2023/08/07 09:06:37;;;;;;;0.00;0.00;;;;;;;;;;10331610;28;20626;-63
2023/08/07 09:11:38;;;;;;;0.00;0.00;;;;;;;;;;10351237;28;20056;-63
2023/08/07 09:16:38;;;;;;;0.00;0.00;;;;;;;;;;10351549;28;20056;-63
2023/08/07 09:21:38;;;;;;;0.00;0.00;;;;;;;;;;10365616;28;20818;-63
2023/08/07 09:26:41;;;;;;;0.00;0.00;;;;;;;;;;10344350;28;20101;-63
2023/08/07 09:31:45;;;;;;;0.00;0.00;;;;;;;;;;10366358;28;20025;-63
2023/08/07 09:36:45;;;;;;;0.00;0.00;;;;;;;;;;10350044;28;20523;-63
2023/08/07 09:41:50;;;;;;;0.00;0.00;;;;;;;;;;10343916;28;20108;-62
2023/08/07 09:46:50;;;;;;;0.00;0.00;;;;;;;;;;10353442;28;20476;-62
2023/08/07 09:51:51;;;;;;;0.00;0.00;;;;;;;;;;10343746;28;20348;-62
2023/08/07 09:56:55;;;;;;;0.00;0.00;;;;;;;;;;10349445;28;20022;-62
2023/08/07 10:01:55;;;;;;;0.00;0.00;;;;;;;;;;10344885;28;20033;-62
2023/08/07 10:06:56;;;;;;;0.00;0.00;;;;;;;;;;10356641;28;20388;-62
2023/08/07 10:11:56;;;;;;;0.00;0.00;;;;;;;;;;10358909;28;20493;-62
2023/08/07 10:16:57;;;;;;;0.00;0.00;;;;;;;;;;10333798;28;20544;-62
2023/08/07 10:21:57;;;;;;;0.10;0.10;;;;;;;;;;10358694;28;20030;-60
2023/08/07 10:26:58;;;;;;;0.00;0.00;;;;;;;;;;10351298;28;20018;-63
2023/08/07 10:31:58;;;;;;;0.00;0.00;;;;;;;;;;10336176;28;20030;-63
2023/08/07 10:36:59;;;;;;;0.00;0.00;;;;;;;;;;10348077;28;20385;-61
2023/08/07 10:42:00;;;;;;;0.00;0.00;;;;;;;;;;10337431;28;20375;-63
2023/08/07 10:47:00;;;;;;;0.10;0.10;;;;;;;;;;10342839;28;20010;-63
2023/08/07 10:52:07;;;;;;;0.00;0.00;;;;;;;;;;10337906;28;20022;-63
2023/08/07 10:57:09;;;;;;;0.10;0.10;;;;;;;;;;10345876;28;20111;-61
2023/08/07 11:02:12;;;;;;;0.10;0.10;;;;;;;;;;10337428;28;20037;-62
2023/08/07 11:07:22;;;;;;;0.00;0.00;;;;;;;;;;10334584;28;20033;-61
2023/08/07 11:12:26;;;;;;;0.00;0.00;;;;;;;;;;10325994;28;20488;-61
2023/08/07 11:17:27;;;;;;;0.00;0.00;;;;;;;;;;10335466;28;20034;-62
2023/08/07 11:22:27;;;;;;;0.00;0.00;;;;;;;;;;10343455;28;20030;-61
2023/08/07 11:27:28;;;;;;;0.10;0.10;;;;;;;;;;10334978;28;20119;-62
2023/08/07 11:32:28;;;;;;;0.00;0.00;;;;;;;;;;10334570;28;20027;-62
2023/08/07 11:37:28;;;;;;;0.00;0.00;;;;;;;;;;10343969;28;20431;-61
2023/08/07 11:42:29;;;;;;;0.10;0.10;;;;;;;;;;10328582;28;20579;-61
2023/08/07 11:47:29;;;;;;;0.10;0.10;;;;;;;;;;10328324;28;20112;-61
2023/08/07 11:52:29;;;;;;;0.00;0.00;;;;;;;;;;10334742;28;20689;-62
2023/08/07 11:57:29;;;;;;;0.00;0.00;;;;;;;;;;10325083;28;20080;-62
2023/08/07 12:02:30;;;;;;;0.00;0.00;;;;;;;;;;10342160;28;20027;-62
2023/08/07 12:07:30;;;;;;;0.10;0.10;;;;;;;;;;10342230;28;20392;-62
2023/08/07 12:12:32;;;;;;;0.00;0.00;;;;;;;;;;10337536;28;20153;-61
2023/08/07 12:17:33;;;;;;;0.10;0.10;;;;;;;;;;10335615;28;20254;-62
2023/08/07 12:22:33;;;;;;;0.00;0.00;;;;;;;;;;10332228;28;20030;-62
2023/08/07 12:27:33;;;;;;;0.00;0.00;;;;;;;;;;10334375;28;20018;-60
2023/08/07 12:32:34;;;;;;;0.00;0.00;;;;;;;;;;10335608;28;20019;-61
2023/08/07 12:37:34;;;;;;;0.00;0.00;;;;;;;;;;10345742;28;20022;-61
2023/08/07 12:42:34;;;;;;;0.00;0.00;;;;;;;;;;10334934;28;20019;-61
2023/08/07 12:47:34;;;;;;;0.00;0.00;;;;;;;;;;10339544;28;20132;-60
2023/08/07 12:52:35;;;;;;;0.10;0.10;;;;;;;;;;10338472;28;20551;-61
2023/08/07 12:57:35;;;;;;;0.00;0.00;;;;;;;;;;10320470;28;20030;-62
2023/08/07 13:02:35;;;;;;;0.00;0.00;;;;;;;;;;10340909;28;20025;-62
2023/08/07 13:07:39;;;;;;;0.00;0.00;;;;;;;;;;10345000;28;20025;-62
2023/08/07 13:12:40;;;;;;;0.00;0.00;;;;;;;;;;10347370;28;20426;-62
2023/08/07 13:17:40;;;;;;;0.05;0.05;;;;;;;;;;10330553;28;20014;-62
2023/08/07 13:22:42;;;;;;;0.00;0.00;;;;;;;;;;10329349;28;20014;-60
2023/08/07 13:27:43;;;;;;;0.00;0.00;;;;;;;;;;10333182;28;20010;-62
2023/08/07 13:32:43;;;;;;;0.00;0.00;;;;;;;;;;10337199;28;20026;-61
2023/08/07 13:37:43;;;;;;;0.10;0.10;;;;;;;;;;10345363;28;20488;-60
2023/08/07 13:42:44;;;;;;;0.00;0.00;;;;;;;;;;10339735;28;20358;-61
2023/08/07 13:47:44;;;;;;;0.10;0.10;;;;;;;;;;10338743;28;20022;-61
2023/08/07 13:52:44;;;;;;;0.00;0.00;;;;;;;;;;10339483;28;20450;-60
2023/08/07 13:57:44;;;;;;;0.10;0.10;;;;;;;;;;10348738;28;20084;-60
2023/08/07 14:02:45;;;;;;;0.00;0.00;;;;;;;;;;10331557;28;20048;-60
2023/08/07 14:07:45;;;;;;;0.00;0.00;;;;;;;;;;10348867;28;20413;-62
2023/08/07 14:12:46;;;;;;;0.00;0.00;;;;;;;;;;10335835;28;20054;-60
2023/08/07 14:17:46;;;;;;;0.10;0.10;;;;;;;;;;10340723;28;20046;-60
2023/08/07 14:22:47;;;;;;;0.10;0.10;;;;;;;;;;10349110;28;20022;-62
2023/08/07 14:27:47;;;;;;;0.00;0.00;;;;;;;;;;10335475;28;20486;-62
2023/08/07 14:32:47;;;;;;;0.10;0.10;;;;;;;;;;10318332;28;20528;-62
2023/08/07 14:37:48;;;;;;;0.00;0.00;;;;;;;;;;10348505;28;21385;-62
2023/08/07 14:42:48;;;;;;;0.00;0.00;;;;;;;;;;10329664;28;20038;-61
2023/08/07 14:47:48;;;;;;;0.10;0.10;;;;;;;;;;10332325;28;20046;-59
2023/08/07 14:52:48;;;;;;;0.10;0.10;;;;;;;;;;10326529;28;20022;-60
2023/08/07 14:57:49;;;;;;;0.00;0.00;;;;;;;;;;10376915;22;20044;-63
2023/08/07 15:02:49;;;;;;;0.08;0.08;;;;;;;;;;10410406;28;20124;-65
2023/08/07 15:07:49;;;;;;;0.10;0.10;;;;;;;;;;10402561;28;20018;-65
2023/08/07 15:12:49;;;;;;;0.10;0.10;;;;;;;;;;10388699;28;20099;-63
2023/08/07 15:17:49;;;;;;;0.00;0.00;;;;;;;;;;10394566;28;20432;-64
2023/08/07 15:22:49;;;;;;;0.00;0.00;;;;;;;;;;10388866;28;20388;-65
2023/08/07 15:27:50;;;;;;;0.00;0.00;;;;;;;;;;10390072;28;20014;-63
2023/08/07 15:32:50;;;;;;;0.00;0.00;;;;;;;;;;10384886;28;20052;-63
2023/08/07 15:37:50;;;;;;;0.20;0.20;;;;;;;;;;10381977;28;20434;-63
2023/08/07 15:42:50;;;;;;;0.00;0.00;;;;;;;;;;10383920;28;20220;-63
2023/08/07 15:47:51;;;;;;;0.00;0.00;;;;;;;;;;10385340;28;20046;-62
2023/08/07 15:52:51;;;;;;;0.10;0.10;;;;;;;;;;10391205;28;20108;-62
2023/08/07 15:57:51;;;;;;;0.10;0.10;;;;;;;;;;10398775;28;20366;-62
2023/08/07 16:02:52;;;;;;;0.00;0.00;;;;;;;;;;10389737;28;20387;-63
2023/08/07 16:07:53;;;;;;;0.00;0.00;;;;;;;;;;10389010;28;20084;-62
2023/08/07 16:12:54;;;;;;;0.00;0.00;;;;;;;;;;10393958;28;20479;-63
2023/08/07 16:17:54;;;;;;;0.00;0.00;;;;;;;;;;10389536;28;20429;-63
2023/08/07 16:22:54;;;;;;;0.10;0.10;;;;;;;;;;10391731;28;20026;-63
2023/08/07 16:27:55;;;;;;;0.10;0.10;;;;;;;;;;10380623;28;20014;-63
2023/08/07 16:32:55;;;;;;;0.00;0.00;;;;;;;;;;10391036;28;20021;-63
2023/08/07 16:37:55;;;;;;;0.10;0.10;;;;;;;;;;10399099;28;20072;-63
2023/08/07 16:42:55;;;;;;;0.10;0.10;;;;;;;;;;10377815;28;20384;-63
2023/08/07 16:47:56;;;;;;;0.03;0.03;;;;;;;;;;10394753;28;20491;-63
2023/08/07 16:52:57;;;;;;;0.10;0.10;;;;;;;;;;10383801;28;20029;-64
2023/08/07 16:57:57;;;;;;;0.10;0.10;;;;;;;;;;10404677;28;20030;-62
2023/08/07 17:02:57;;;;;;;0.00;0.00;;;;;;;;;;10397696;28;20104;-62
2023/08/07 17:07:57;;;;;;;0.00;0.00;;;;;;;;;;10402651;28;20101;-61
2023/08/07 17:12:58;;;;;;;0.10;0.10;;;;;;;;;;10394685;28;20592;-62
2023/08/07 17:17:58;;;;;;;0.10;0.10;;;;;;;;;;10390624;28;20472;-63
2023/08/07 17:22:58;;;;;;;0.10;0.10;;;;;;;;;;10397439;28;20072;-62
2023/08/07 17:27:59;;;;;;;0.10;0.10;;;;;;;;;;10391039;28;20040;-62
2023/08/07 17:32:59;;;;;;;0.10;0.10;;;;;;;;;;10394452;28;20037;-62
2023/08/07 17:37:59;;;;;;;0.10;0.10;;;;;;;;;;10381555;28;20029;-61
2023/08/07 17:42:59;;;;;;;0.10;0.10;;;;;;;;;;10384702;28;20021;-62
2023/08/07 17:48:00;;;;;;;0.10;0.10;;;;;;;;;;10393646;28;20018;-62
2023/08/07 17:53:00;;;;;;;0.10;0.10;;;;;;;;;;10396484;28;20017;-63
2023/08/07 17:58:00;;;;;;;0.10;0.10;;;;;;;;;;10389039;28;20026;-63
2023/08/07 18:03:00;;;;;;;0.10;0.10;;;;;;;;;;10398146;28;20064;-63
2023/08/07 18:08:01;;;;;;;0.10;0.10;;;;;;;;;;10390068;28;20472;-63
2023/08/07 18:13:01;;;;;;;0.10;0.10;;;;;;;;;;10398729;28;20021;-62
2023/08/07 18:18:01;;;;;;;0.10;0.10;;;;;;;;;;10385166;28;20491;-62
2023/08/07 18:23:01;;;;;;;0.10;0.10;;;;;;;;;;10386167;28;20084;-62
2023/08/07 18:28:02;;;;;;;0.10;0.10;;;;;;;;;;10389979;28;20080;-62
2023/08/07 18:33:02;;;;;;;0.10;0.10;;;;;;;;;;10394632;28;20100;-61
2023/08/07 18:38:02;;;;;;;0.10;0.10;;;;;;;;;;10390283;28;20025;-62
2023/08/07 18:43:02;;;;;;;0.10;0.10;;;;;;;;;;10382566;28;20022;-63
2023/08/07 18:48:03;;;;;;;0.10;0.10;;;;;;;;;;10389810;28;20040;-63
2023/08/07 18:53:03;;;;;;;0.10;0.10;;;;;;;;;;10392100;28;20021;-63
2023/08/07 18:58:03;;;;;;;0.10;0.10;;;;;;;;;;10394994;28;20043;-64
2023/08/07 19:03:03;;;;;;;0.10;0.10;;;;;;;;;;10390207;28;20495;-63
2023/08/07 19:08:04;;;;;;;0.10;0.10;;;;;;;;;;10392981;28;20465;-64
2023/08/07 19:13:04;;;;;;;0.10;0.10;;;;;;;;;;10387392;28;20277;-64
2023/08/07 19:18:04;;;;;;;0.10;0.10;;;;;;;;;;10381963;28;20267;-63
2023/08/07 19:23:04;;;;;;;0.10;0.10;;;;;;;;;;10389651;28;20453;-63
2023/08/07 19:28:05;;;;;;;0.10;0.10;;;;;;;;;;10380030;28;20113;-63
2023/08/07 19:33:05;;;;;;;0.20;0.20;;;;;;;;;;10392186;28;20119;-63
2023/08/07 19:38:05;;;;;;;0.10;0.10;;;;;;;;;;10390851;28;20526;-63
2023/08/07 19:43:06;;;;;;;0.10;0.10;;;;;;;;;;10378824;28;20108;-63
2023/08/07 19:48:06;;;;;;;0.10;0.10;;;;;;;;;;10380952;28;20061;-64
2023/08/07 19:53:06;;;;;;;0.10;0.10;;;;;;;;;;10389114;28;20493;-63
2023/08/07 19:58:07;;;;;;;0.10;0.10;;;;;;;;;;10388501;28;20048;-63
2023/08/07 20:03:07;;;;;;;0.10;0.10;;;;;;;;;;10394126;28;20026;-64
2023/08/07 20:08:08;;;;;;;0.03;0.03;;;;;;;;;;10393783;28;20112;-64
2023/08/07 20:13:08;;;;;;;0.10;0.10;;;;;;;;;;10387138;28;20104;-64
2023/08/07 20:18:08;;;;;;;0.10;0.10;;;;;;;;;;10383041;28;20465;-63
2023/08/07 20:23:08;;;;;;;0.10;0.10;;;;;;;;;;10373631;28;20029;-63
2023/08/07 20:28:09;;;;;;;0.10;0.10;;;;;;;;;;10383988;28;20029;-64
2023/08/07 20:33:09;;;;;;;0.10;0.10;;;;;;;;;;10385675;28;20022;-63
2023/08/07 20:38:09;;;;;;;0.10;0.10;;;;;;;;;;10396060;28;20050;-63
2023/08/07 20:43:10;;;;;;;0.10;0.10;;;;;;;;;;10387580;28;20029;-63
2023/08/07 20:48:10;;;;;;;0.10;0.10;;;;;;;;;;10391939;28;20018;-64
2023/08/07 20:53:10;;;;;;;0.10;0.10;;;;;;;;;;10384933;28;20104;-64
2023/08/07 20:58:10;;;;;;;0.10;0.10;;;;;;;;;;10386546;28;20037;-63
2023/08/07 21:08:13;;;;;;;0.03;0.03;;;;;;;;;;10407038;28;20382;-64
2023/08/07 21:13:13;;;;;;;0.10;0.10;;;;;;;;;;10411511;28;20029;-64
2023/08/07 21:18:13;;;;;;;0.10;0.10;;;;;;;;;;10411185;28;20022;-63
2023/08/07 21:23:15;;;;;;;0.00;0.00;;;;;;;;;;10411465;28;20456;-63
2023/08/07 21:28:15;;;;;;;0.10;0.10;;;;;;;;;;10410895;28;20036;-63
2023/08/07 21:33:15;;;;;;;0.00;0.00;;;;;;;;;;10410941;28;20388;-63
2023/08/07 21:38:15;;;;;;;0.00;0.00;;;;;;;;;;10409974;28;20432;-62
2023/08/07 21:43:15;;;;;;;0.10;0.10;;;;;;;;;;10410418;28;20029;-63
2023/08/07 21:48:16;;;;;;;0.10;0.10;;;;;;;;;;10409151;28;20053;-64
2023/08/07 21:53:16;;;;;;;0.10;0.10;;;;;;;;;;10409829;28;20025;-62
2023/08/07 21:58:16;;;;;;;0.10;0.10;;;;;;;;;;10409644;28;20032;-61
2023/08/07 22:03:16;;;;;;;0.10;0.10;;;;;;;;;;10409159;28;20025;-63
2023/08/07 22:08:17;;;;;;;0.10;0.10;;;;;;;;;;10408966;28;20017;-62
2023/08/07 22:13:17;;;;;;;0.00;0.00;;;;;;;;;;10409211;28;20029;-63
2023/08/07 22:18:17;;;;;;;0.10;0.10;;;;;;;;;;10408788;28;20115;-63
2023/08/07 22:23:17;;;;;;;0.10;0.10;;;;;;;;;;10408335;28;20101;-63
2023/08/07 22:28:18;;;;;;;0.10;0.10;;;;;;;;;;10408356;28;20071;-63
2023/08/07 22:33:18;;;;;;;0.10;0.10;;;;;;;;;;10408499;28;20032;-63
2023/08/07 22:38:18;;;;;;;0.10;0.10;;;;;;;;;;10407647;28;20018;-63
2023/08/07 22:43:18;;;;;;;0.10;0.10;;;;;;;;;;10408873;28;20025;-62
2023/08/07 22:48:19;;;;;;;0.10;0.10;;;;;;;;;;10407791;28;20025;-63
2023/08/07 22:53:19;;;;;;;0.10;0.10;;;;;;;;;;10407577;28;20013;-61
2023/08/07 22:58:20;;;;;;;0.10;0.10;;;;;;;;;;10408243;28;20021;-63
2023/08/07 23:03:20;;;;;;;0.10;0.10;;;;;;;;;;10407061;28;20018;-65
2023/08/07 23:08:20;;;;;;;0.10;0.10;;;;;;;;;;10407125;28;20472;-64
2023/08/07 23:13:20;;;;;;;0.10;0.10;;;;;;;;;;10406845;28;20452;-63
2023/08/07 23:18:20;;;;;;;0.10;0.10;;;;;;;;;;10406867;28;20044;-64
2023/08/07 23:23:21;;;;;;;0.10;0.10;;;;;;;;;;10407090;28;20028;-63
2023/08/07 23:28:21;;;;;;;0.10;0.10;;;;;;;;;;10407096;28;20028;-63
2023/08/07 23:33:21;;;;;;;0.10;0.10;;;;;;;;;;10407226;28;20010;-64
2023/08/07 23:38:21;;;;;;;0.10;0.10;;;;;;;;;;10405615;28;20021;-63
2023/08/07 23:43:21;;;;;;;0.10;0.10;;;;;;;;;;10406074;28;20041;-64
2023/08/07 23:48:22;;;;;;;0.00;0.00;;;;;;;;;;10406179;28;20051;-64
2023/08/07 23:53:22;;;;;;;0.10;0.10;;;;;;;;;;10405822;28;20148;-63
2023/08/07 23:58:22;;;;;;;0.10;0.10;;;;;;;;;;10406284;28;20030;-63
